sensor_id;sensor_type;location;lat;lon;timestamp;P1;durP1;ratioP1;P2;durP2;ratioP2
2748;SDS011;1382;52.142;11.618;2023-04-10T00:01:53;26.37;;;15.10;;
2748;SDS011;1382;52.142;11.618;2023-04-10T00:04:20;23.80;;;16.67;;
2748;SDS011;1382;52.142;11.618;2023-04-10T00:06:46;21.00;;;13.20;;
2748;SDS011;1382;52.142;11.618;2023-04-10T00:09:13;23.50;;;15.23;;
2748;SDS011;1382;52.142;11.618;2023-04-10T00:11:41;18.93;;;12.50;;
2748;SDS011;1382;52.142;11.618;2023-04-10T00:14:08;21.33;;;13.60;;
2748;SDS011;1382;52.142;11.618;2023-04-10T00:16:35;21.83;;;12.87;;
2748;SDS011;1382;52.142;11.618;2023-04-10T00:19:01;24.03;;;16.00;;
2748;SDS011;1382;52.142;11.618;2023-04-10T00:21:28;21.53;;;16.70;;
2748;SDS011;1382;52.142;11.618;2023-04-10T00:23:55;22.53;;;14.60;;
2748;SDS011;1382;52.142;11.618;2023-04-10T00:26:22;21.63;;;13.27;;
2748;SDS011;1382;52.142;11.618;2023-04-10T00:28:49;23.17;;;15.03;;
2748;SDS011;1382;52.142;11.618;2023-04-10T00:31:16;18.13;;;12.00;;
2748;SDS011;1382;52.142;11.618;2023-04-10T00:33:43;22.00;;;13.77;;
2748;SDS011;1382;52.142;11.618;2023-04-10T00:36:10;20.20;;;14.13;;
2748;SDS011;1382;52.142;11.618;2023-04-10T00:38:36;23.50;;;14.93;;
2748;SDS011;1382;52.142;11.618;2023-04-10T00:41:03;24.20;;;14.90;;
2748;SDS011;1382;52.142;11.618;2023-04-10T00:43:30;21.07;;;11.50;;
2748;SDS011;1382;52.142;11.618;2023-04-10T00:45:58;27.23;;;16.60;;
2748;SDS011;1382;52.142;11.618;2023-04-10T00:48:25;21.27;;;14.90;;
2748;SDS011;1382;52.142;11.618;2023-04-10T00:50:52;20.93;;;13.37;;
2748;SDS011;1382;52.142;11.618;2023-04-10T00:53:19;20.20;;;13.03;;
2748;SDS011;1382;52.142;11.618;2023-04-10T00:55:46;25.30;;;16.40;;
2748;SDS011;1382;52.142;11.618;2023-04-10T00:58:14;16.43;;;11.53;;
2748;SDS011;1382;52.142;11.618;2023-04-10T01:00:41;27.37;;;14.70;;
2748;SDS011;1382;52.142;11.618;2023-04-10T01:03:09;20.63;;;13.53;;
2748;SDS011;1382;52.142;11.618;2023-04-10T01:05:38;21.80;;;13.10;;
2748;SDS011;1382;52.142;11.618;2023-04-10T01:08:11;26.30;;;17.60;;
2748;SDS011;1382;52.142;11.618;2023-04-10T01:10:45;21.97;;;14.37;;
2748;SDS011;1382;52.142;11.618;2023-04-10T01:13:19;21.10;;;13.70;;
2748;SDS011;1382;52.142;11.618;2023-04-10T01:15:51;22.80;;;14.80;;
2748;SDS011;1382;52.142;11.618;2023-04-10T01:18:25;21.17;;;14.03;;
2748;SDS011;1382;52.142;11.618;2023-04-10T01:20:59;22.00;;;15.10;;
2748;SDS011;1382;52.142;11.618;2023-04-10T01:23:37;21.70;;;14.40;;
2748;SDS011;1382;52.142;11.618;2023-04-10T01:26:16;23.77;;;14.87;;
2748;SDS011;1382;52.142;11.618;2023-04-10T01:28:59;20.60;;;13.17;;
2748;SDS011;1382;52.142;11.618;2023-04-10T01:31:32;24.83;;;13.80;;
2748;SDS011;1382;52.142;11.618;2023-04-10T01:34:03;21.57;;;13.03;;
2748;SDS011;1382;52.142;11.618;2023-04-10T01:36:35;21.17;;;12.73;;
2748;SDS011;1382;52.142;11.618;2023-04-10T01:39:04;27.17;;;16.80;;
2748;SDS011;1382;52.142;11.618;2023-04-10T01:41:33;23.73;;;13.87;;
2748;SDS011;1382;52.142;11.618;2023-04-10T01:44:02;32.93;;;21.20;;
2748;SDS011;1382;52.142;11.618;2023-04-10T01:46:30;31.37;;;18.40;;
2748;SDS011;1382;52.142;11.618;2023-04-10T01:48:59;29.70;;;19.13;;
2748;SDS011;1382;52.142;11.618;2023-04-10T01:51:28;32.40;;;20.13;;
2748;SDS011;1382;52.142;11.618;2023-04-10T01:53:56;23.80;;;14.67;;
2748;SDS011;1382;52.142;11.618;2023-04-10T01:56:23;27.60;;;16.53;;
2748;SDS011;1382;52.142;11.618;2023-04-10T01:58:51;26.00;;;15.10;;
2748;SDS011;1382;52.142;11.618;2023-04-10T02:01:19;25.60;;;16.20;;
2748;SDS011;1382;52.142;11.618;2023-04-10T02:03:56;25.47;;;16.70;;
2748;SDS011;1382;52.142;11.618;2023-04-10T02:06:25;25.60;;;15.07;;
2748;SDS011;1382;52.142;11.618;2023-04-10T02:08:58;26.63;;;16.00;;
2748;SDS011;1382;52.142;11.618;2023-04-10T02:11:31;24.13;;;15.47;;
2748;SDS011;1382;52.142;11.618;2023-04-10T02:14:03;23.53;;;15.30;;
2748;SDS011;1382;52.142;11.618;2023-04-10T02:16:34;29.07;;;17.13;;
2748;SDS011;1382;52.142;11.618;2023-04-10T02:19:03;22.13;;;13.80;;
2748;SDS011;1382;52.142;11.618;2023-04-10T02:21:31;28.20;;;16.97;;
2748;SDS011;1382;52.142;11.618;2023-04-10T02:23:58;22.50;;;15.33;;
2748;SDS011;1382;52.142;11.618;2023-04-10T02:26:25;23.03;;;15.80;;
2748;SDS011;1382;52.142;11.618;2023-04-10T02:28:52;25.00;;;15.27;;
2748;SDS011;1382;52.142;11.618;2023-04-10T02:31:19;23.47;;;14.63;;
2748;SDS011;1382;52.142;11.618;2023-04-10T02:33:47;21.87;;;14.23;;
2748;SDS011;1382;52.142;11.618;2023-04-10T02:36:14;26.50;;;16.77;;
2748;SDS011;1382;52.142;11.618;2023-04-10T02:38:40;20.10;;;15.23;;
2748;SDS011;1382;52.142;11.618;2023-04-10T02:41:07;19.50;;;13.70;;
2748;SDS011;1382;52.142;11.618;2023-04-10T02:43:34;26.33;;;16.10;;
2748;SDS011;1382;52.142;11.618;2023-04-10T02:46:01;19.57;;;13.20;;
2748;SDS011;1382;52.142;11.618;2023-04-10T02:48:28;25.57;;;15.40;;
2748;SDS011;1382;52.142;11.618;2023-04-10T02:50:56;22.90;;;15.77;;
2748;SDS011;1382;52.142;11.618;2023-04-10T02:53:23;22.27;;;13.37;;
2748;SDS011;1382;52.142;11.618;2023-04-10T02:55:51;21.53;;;13.27;;
2748;SDS011;1382;52.142;11.618;2023-04-10T02:58:18;22.80;;;15.27;;
2748;SDS011;1382;52.142;11.618;2023-04-10T03:00:46;30.80;;;15.97;;
2748;SDS011;1382;52.142;11.618;2023-04-10T03:03:14;22.77;;;15.27;;
2748;SDS011;1382;52.142;11.618;2023-04-10T03:05:41;24.90;;;13.43;;
2748;SDS011;1382;52.142;11.618;2023-04-10T03:08:09;20.70;;;13.60;;
2748;SDS011;1382;52.142;11.618;2023-04-10T03:10:36;25.00;;;13.57;;
2748;SDS011;1382;52.142;11.618;2023-04-10T03:13:02;23.60;;;15.73;;
2748;SDS011;1382;52.142;11.618;2023-04-10T03:15:29;22.20;;;14.00;;
2748;SDS011;1382;52.142;11.618;2023-04-10T03:17:56;23.53;;;13.10;;
2748;SDS011;1382;52.142;11.618;2023-04-10T03:20:23;24.87;;;13.97;;
2748;SDS011;1382;52.142;11.618;2023-04-10T03:22:49;19.93;;;11.07;;
2748;SDS011;1382;52.142;11.618;2023-04-10T03:25:17;22.23;;;13.30;;
2748;SDS011;1382;52.142;11.618;2023-04-10T03:27:44;23.67;;;13.20;;
2748;SDS011;1382;52.142;11.618;2023-04-10T03:30:11;23.60;;;11.50;;
2748;SDS011;1382;52.142;11.618;2023-04-10T03:32:38;27.03;;;17.33;;
2748;SDS011;1382;52.142;11.618;2023-04-10T03:35:05;21.47;;;13.60;;
2748;SDS011;1382;52.142;11.618;2023-04-10T03:37:32;22.47;;;13.73;;
2748;SDS011;1382;52.142;11.618;2023-04-10T03:39:59;23.87;;;14.47;;
2748;SDS011;1382;52.142;11.618;2023-04-10T03:42:27;22.30;;;15.13;;
2748;SDS011;1382;52.142;11.618;2023-04-10T03:44:53;24.20;;;13.27;;
2748;SDS011;1382;52.142;11.618;2023-04-10T03:47:20;25.73;;;13.73;;
2748;SDS011;1382;52.142;11.618;2023-04-10T03:49:47;24.97;;;15.00;;
2748;SDS011;1382;52.142;11.618;2023-04-10T03:52:14;27.20;;;14.40;;
2748;SDS011;1382;52.142;11.618;2023-04-10T03:54:40;18.07;;;12.40;;
2748;SDS011;1382;52.142;11.618;2023-04-10T03:57:07;23.10;;;13.70;;
2748;SDS011;1382;52.142;11.618;2023-04-10T03:59:35;24.63;;;13.87;;
2748;SDS011;1382;52.142;11.618;2023-04-10T04:02:05;21.50;;;14.90;;
2748;SDS011;1382;52.142;11.618;2023-04-10T04:04:32;25.80;;;14.33;;
2748;SDS011;1382;52.142;11.618;2023-04-10T04:06:59;18.33;;;10.93;;
2748;SDS011;1382;52.142;11.618;2023-04-10T04:09:26;24.00;;;13.03;;
2748;SDS011;1382;52.142;11.618;2023-04-10T04:11:53;19.23;;;11.90;;
2748;SDS011;1382;52.142;11.618;2023-04-10T04:14:19;26.17;;;13.10;;
2748;SDS011;1382;52.142;11.618;2023-04-10T04:16:47;25.50;;;15.37;;
2748;SDS011;1382;52.142;11.618;2023-04-10T04:19:15;24.27;;;13.10;;
2748;SDS011;1382;52.142;11.618;2023-04-10T04:21:41;31.47;;;15.93;;
2748;SDS011;1382;52.142;11.618;2023-04-10T04:24:08;25.77;;;15.10;;
2748;SDS011;1382;52.142;11.618;2023-04-10T04:26:35;23.27;;;14.10;;
2748;SDS011;1382;52.142;11.618;2023-04-10T04:29:01;23.17;;;13.80;;
2748;SDS011;1382;52.142;11.618;2023-04-10T04:31:28;24.50;;;15.80;;
2748;SDS011;1382;52.142;11.618;2023-04-10T04:33:56;24.13;;;15.47;;
2748;SDS011;1382;52.142;11.618;2023-04-10T04:36:23;24.63;;;13.47;;
2748;SDS011;1382;52.142;11.618;2023-04-10T04:38:50;22.60;;;12.80;;
2748;SDS011;1382;52.142;11.618;2023-04-10T04:41:16;18.17;;;11.50;;
2748;SDS011;1382;52.142;11.618;2023-04-10T04:43:45;20.13;;;13.73;;
2748;SDS011;1382;52.142;11.618;2023-04-10T04:46:12;27.23;;;15.67;;
2748;SDS011;1382;52.142;11.618;2023-04-10T04:48:39;23.57;;;14.00;;
2748;SDS011;1382;52.142;11.618;2023-04-10T04:51:08;27.53;;;14.23;;
2748;SDS011;1382;52.142;11.618;2023-04-10T04:53:34;23.97;;;14.97;;
2748;SDS011;1382;52.142;11.618;2023-04-10T04:56:01;25.73;;;16.00;;
2748;SDS011;1382;52.142;11.618;2023-04-10T04:58:28;22.03;;;14.43;;
2748;SDS011;1382;52.142;11.618;2023-04-10T05:00:54;21.80;;;12.20;;
2748;SDS011;1382;52.142;11.618;2023-04-10T05:03:21;26.00;;;14.20;;
2748;SDS011;1382;52.142;11.618;2023-04-10T05:05:48;20.53;;;13.63;;
2748;SDS011;1382;52.142;11.618;2023-04-10T05:08:16;22.23;;;15.40;;
2748;SDS011;1382;52.142;11.618;2023-04-10T05:10:43;25.90;;;15.13;;
2748;SDS011;1382;52.142;11.618;2023-04-10T05:13:10;28.30;;;17.90;;
2748;SDS011;1382;52.142;11.618;2023-04-10T05:15:36;26.47;;;14.87;;
2748;SDS011;1382;52.142;11.618;2023-04-10T05:18:03;25.37;;;16.00;;
2748;SDS011;1382;52.142;11.618;2023-04-10T05:20:30;30.23;;;17.93;;
2748;SDS011;1382;52.142;11.618;2023-04-10T05:22:59;28.40;;;16.90;;
2748;SDS011;1382;52.142;11.618;2023-04-10T05:25:27;30.30;;;18.20;;
2748;SDS011;1382;52.142;11.618;2023-04-10T05:27:54;31.87;;;16.03;;
2748;SDS011;1382;52.142;11.618;2023-04-10T05:30:21;29.10;;;17.73;;
2748;SDS011;1382;52.142;11.618;2023-04-10T05:32:48;29.87;;;17.60;;
2748;SDS011;1382;52.142;11.618;2023-04-10T05:35:15;29.17;;;16.50;;
2748;SDS011;1382;52.142;11.618;2023-04-10T05:37:41;25.53;;;16.07;;
2748;SDS011;1382;52.142;11.618;2023-04-10T05:40:08;35.77;;;18.07;;
2748;SDS011;1382;52.142;11.618;2023-04-10T05:42:36;27.47;;;16.00;;
2748;SDS011;1382;52.142;11.618;2023-04-10T05:45:03;22.57;;;14.37;;
2748;SDS011;1382;52.142;11.618;2023-04-10T05:47:31;26.20;;;15.80;;
2748;SDS011;1382;52.142;11.618;2023-04-10T05:49:58;27.30;;;17.27;;
2748;SDS011;1382;52.142;11.618;2023-04-10T05:52:24;27.23;;;15.00;;
2748;SDS011;1382;52.142;11.618;2023-04-10T05:54:51;28.33;;;17.00;;
2748;SDS011;1382;52.142;11.618;2023-04-10T05:57:18;21.80;;;15.60;;
2748;SDS011;1382;52.142;11.618;2023-04-10T05:59:46;25.80;;;16.17;;
2748;SDS011;1382;52.142;11.618;2023-04-10T06:02:12;29.50;;;18.03;;
2748;SDS011;1382;52.142;11.618;2023-04-10T06:04:39;29.43;;;18.17;;
2748;SDS011;1382;52.142;11.618;2023-04-10T06:07:06;24.33;;;15.60;;
2748;SDS011;1382;52.142;11.618;2023-04-10T06:09:33;29.47;;;18.00;;
2748;SDS011;1382;52.142;11.618;2023-04-10T06:12:00;34.83;;;19.63;;
2748;SDS011;1382;52.142;11.618;2023-04-10T06:14:27;23.67;;;16.53;;
2748;SDS011;1382;52.142;11.618;2023-04-10T06:16:55;31.57;;;20.33;;
2748;SDS011;1382;52.142;11.618;2023-04-10T06:19:21;35.37;;;20.20;;
2748;SDS011;1382;52.142;11.618;2023-04-10T06:21:48;31.40;;;21.50;;
2748;SDS011;1382;52.142;11.618;2023-04-10T06:24:16;27.63;;;17.00;;
2748;SDS011;1382;52.142;11.618;2023-04-10T06:26:43;27.47;;;17.70;;
2748;SDS011;1382;52.142;11.618;2023-04-10T06:29:09;27.57;;;17.07;;
2748;SDS011;1382;52.142;11.618;2023-04-10T06:31:36;37.57;;;21.47;;
2748;SDS011;1382;52.142;11.618;2023-04-10T06:34:04;26.70;;;17.57;;
2748;SDS011;1382;52.142;11.618;2023-04-10T06:36:31;30.40;;;19.60;;
2748;SDS011;1382;52.142;11.618;2023-04-10T06:38:58;33.23;;;20.30;;
2748;SDS011;1382;52.142;11.618;2023-04-10T06:41:24;37.13;;;20.63;;
2748;SDS011;1382;52.142;11.618;2023-04-10T06:43:51;32.70;;;20.20;;
2748;SDS011;1382;52.142;11.618;2023-04-10T06:46:18;36.57;;;20.27;;
2748;SDS011;1382;52.142;11.618;2023-04-10T06:48:44;25.43;;;17.67;;
2748;SDS011;1382;52.142;11.618;2023-04-10T06:51:12;32.20;;;20.70;;
2748;SDS011;1382;52.142;11.618;2023-04-10T06:53:39;31.30;;;22.07;;
2748;SDS011;1382;52.142;11.618;2023-04-10T06:56:06;32.10;;;19.70;;
2748;SDS011;1382;52.142;11.618;2023-04-10T06:58:33;29.80;;;20.43;;
2748;SDS011;1382;52.142;11.618;2023-04-10T07:01:00;40.60;;;20.60;;
2748;SDS011;1382;52.142;11.618;2023-04-10T07:03:27;31.67;;;20.33;;
2748;SDS011;1382;52.142;11.618;2023-04-10T07:05:53;32.30;;;20.40;;
2748;SDS011;1382;52.142;11.618;2023-04-10T07:08:21;32.20;;;20.03;;
2748;SDS011;1382;52.142;11.618;2023-04-10T07:10:48;29.23;;;21.00;;
2748;SDS011;1382;52.142;11.618;2023-04-10T07:13:29;30.93;;;21.50;;
2748;SDS011;1382;52.142;11.618;2023-04-10T07:16:00;26.83;;;18.70;;
2748;SDS011;1382;52.142;11.618;2023-04-10T07:18:27;32.60;;;21.73;;
2748;SDS011;1382;52.142;11.618;2023-04-10T07:20:55;29.23;;;18.70;;
2748;SDS011;1382;52.142;11.618;2023-04-10T07:24:03;30.00;;;19.17;;
2748;SDS011;1382;52.142;11.618;2023-04-10T07:26:30;30.73;;;21.03;;
2748;SDS011;1382;52.142;11.618;2023-04-10T07:28:57;32.00;;;21.30;;
2748;SDS011;1382;52.142;11.618;2023-04-10T07:31:23;31.50;;;23.07;;
2748;SDS011;1382;52.142;11.618;2023-04-10T07:33:50;26.27;;;18.10;;
2748;SDS011;1382;52.142;11.618;2023-04-10T07:36:17;34.37;;;22.80;;
2748;SDS011;1382;52.142;11.618;2023-04-10T07:38:43;28.50;;;18.90;;
2748;SDS011;1382;52.142;11.618;2023-04-10T07:41:12;28.97;;;18.80;;
2748;SDS011;1382;52.142;11.618;2023-04-10T07:43:38;29.23;;;19.67;;
2748;SDS011;1382;52.142;11.618;2023-04-10T07:46:05;26.80;;;19.57;;
2748;SDS011;1382;52.142;11.618;2023-04-10T07:48:32;32.67;;;22.13;;
2748;SDS011;1382;52.142;11.618;2023-04-10T07:50:59;29.70;;;21.03;;
2748;SDS011;1382;52.142;11.618;2023-04-10T07:53:25;31.17;;;21.33;;
2748;SDS011;1382;52.142;11.618;2023-04-10T07:55:52;27.73;;;18.80;;
2748;SDS011;1382;52.142;11.618;2023-04-10T07:58:20;26.77;;;16.77;;
2748;SDS011;1382;52.142;11.618;2023-04-10T08:00:47;26.57;;;20.63;;
2748;SDS011;1382;52.142;11.618;2023-04-10T08:03:13;28.30;;;19.30;;
2748;SDS011;1382;52.142;11.618;2023-04-10T08:05:41;31.23;;;21.87;;
2748;SDS011;1382;52.142;11.618;2023-04-10T08:08:07;31.20;;;21.60;;
2748;SDS011;1382;52.142;11.618;2023-04-10T08:10:35;24.23;;;18.37;;
2748;SDS011;1382;52.142;11.618;2023-04-10T08:13:02;31.70;;;22.00;;
2748;SDS011;1382;52.142;11.618;2023-04-10T08:15:30;28.90;;;22.10;;
2748;SDS011;1382;52.142;11.618;2023-04-10T08:17:57;30.77;;;22.30;;
2748;SDS011;1382;52.142;11.618;2023-04-10T08:20:23;34.23;;;24.57;;
2748;SDS011;1382;52.142;11.618;2023-04-10T08:22:50;28.13;;;17.67;;
2748;SDS011;1382;52.142;11.618;2023-04-10T08:25:17;30.60;;;23.20;;
2748;SDS011;1382;52.142;11.618;2023-04-10T08:27:44;29.60;;;22.63;;
2748;SDS011;1382;52.142;11.618;2023-04-10T08:30:10;25.20;;;19.13;;
2748;SDS011;1382;52.142;11.618;2023-04-10T08:32:39;29.00;;;21.17;;
2748;SDS011;1382;52.142;11.618;2023-04-10T08:35:06;27.23;;;21.40;;
2748;SDS011;1382;52.142;11.618;2023-04-10T08:37:33;30.53;;;22.67;;
2748;SDS011;1382;52.142;11.618;2023-04-10T08:40:00;34.13;;;22.50;;
2748;SDS011;1382;52.142;11.618;2023-04-10T08:42:27;25.53;;;20.03;;
2748;SDS011;1382;52.142;11.618;2023-04-10T08:44:53;26.80;;;21.43;;
2748;SDS011;1382;52.142;11.618;2023-04-10T08:47:20;25.43;;;18.27;;
2748;SDS011;1382;52.142;11.618;2023-04-10T08:49:53;29.20;;;20.53;;
2748;SDS011;1382;52.142;11.618;2023-04-10T08:52:23;24.77;;;19.53;;
2748;SDS011;1382;52.142;11.618;2023-04-10T08:54:52;23.43;;;19.53;;
2748;SDS011;1382;52.142;11.618;2023-04-10T08:57:20;36.90;;;20.10;;
2748;SDS011;1382;52.142;11.618;2023-04-10T08:59:47;32.20;;;21.10;;
2748;SDS011;1382;52.142;11.618;2023-04-10T09:02:15;24.67;;;19.57;;
2748;SDS011;1382;52.142;11.618;2023-04-10T09:04:42;26.40;;;19.67;;
2748;SDS011;1382;52.142;11.618;2023-04-10T09:07:14;23.17;;;16.57;;
2748;SDS011;1382;52.142;11.618;2023-04-10T09:09:40;25.23;;;19.27;;
2748;SDS011;1382;52.142;11.618;2023-04-10T09:12:07;24.20;;;18.50;;
2748;SDS011;1382;52.142;11.618;2023-04-10T09:14:34;23.23;;;18.13;;
2748;SDS011;1382;52.142;11.618;2023-04-10T09:17:12;27.77;;;20.90;;
2748;SDS011;1382;52.142;11.618;2023-04-10T09:19:41;26.13;;;18.77;;
2748;SDS011;1382;52.142;11.618;2023-04-10T09:22:09;26.07;;;20.20;;
2748;SDS011;1382;52.142;11.618;2023-04-10T09:24:38;18.63;;;12.47;;
2748;SDS011;1382;52.142;11.618;2023-04-10T09:27:06;23.67;;;17.57;;
2748;SDS011;1382;52.142;11.618;2023-04-10T09:29:38;23.00;;;19.37;;
2748;SDS011;1382;52.142;11.618;2023-04-10T09:32:07;23.50;;;19.50;;
2748;SDS011;1382;52.142;11.618;2023-04-10T09:34:41;26.00;;;18.47;;
2748;SDS011;1382;52.142;11.618;2023-04-10T09:37:18;24.90;;;19.83;;
2748;SDS011;1382;52.142;11.618;2023-04-10T09:39:46;20.50;;;17.60;;
2748;SDS011;1382;52.142;11.618;2023-04-10T09:42:16;20.97;;;16.80;;
2748;SDS011;1382;52.142;11.618;2023-04-10T09:44:56;20.87;;;18.17;;
2748;SDS011;1382;52.142;11.618;2023-04-10T09:47:23;21.43;;;16.40;;
2748;SDS011;1382;52.142;11.618;2023-04-10T09:49:51;21.93;;;18.53;;
2748;SDS011;1382;52.142;11.618;2023-04-10T09:52:19;23.50;;;17.17;;
2748;SDS011;1382;52.142;11.618;2023-04-10T09:54:49;19.07;;;15.30;;
2748;SDS011;1382;52.142;11.618;2023-04-10T09:57:16;22.90;;;17.07;;
2748;SDS011;1382;52.142;11.618;2023-04-10T09:59:45;20.83;;;15.10;;
2748;SDS011;1382;52.142;11.618;2023-04-10T10:02:15;21.97;;;17.47;;
2748;SDS011;1382;52.142;11.618;2023-04-10T10:04:43;18.50;;;14.27;;
2748;SDS011;1382;52.142;11.618;2023-04-10T10:07:11;18.33;;;15.43;;
2748;SDS011;1382;52.142;11.618;2023-04-10T10:09:39;25.20;;;19.93;;
2748;SDS011;1382;52.142;11.618;2023-04-10T10:12:09;21.83;;;17.60;;
2748;SDS011;1382;52.142;11.618;2023-04-10T10:14:39;18.63;;;15.07;;
2748;SDS011;1382;52.142;11.618;2023-04-10T10:17:10;25.83;;;17.10;;
2748;SDS011;1382;52.142;11.618;2023-04-10T10:19:41;23.60;;;18.80;;
2748;SDS011;1382;52.142;11.618;2023-04-10T10:22:16;21.90;;;17.87;;
2748;SDS011;1382;52.142;11.618;2023-04-10T10:24:45;23.10;;;15.00;;
2748;SDS011;1382;52.142;11.618;2023-04-10T10:27:13;18.87;;;16.50;;
2748;SDS011;1382;52.142;11.618;2023-04-10T10:29:43;22.50;;;15.17;;
2748;SDS011;1382;52.142;11.618;2023-04-10T10:32:13;18.00;;;16.03;;
2748;SDS011;1382;52.142;11.618;2023-04-10T10:34:43;19.27;;;14.60;;
2748;SDS011;1382;52.142;11.618;2023-04-10T10:37:10;15.90;;;12.87;;
2748;SDS011;1382;52.142;11.618;2023-04-10T10:39:41;18.17;;;14.63;;
2748;SDS011;1382;52.142;11.618;2023-04-10T10:42:14;19.43;;;16.13;;
2748;SDS011;1382;52.142;11.618;2023-04-10T10:44:48;19.63;;;16.43;;
2748;SDS011;1382;52.142;11.618;2023-04-10T10:47:25;18.10;;;14.30;;
2748;SDS011;1382;52.142;11.618;2023-04-10T10:49:54;18.50;;;16.50;;
2748;SDS011;1382;52.142;11.618;2023-04-10T10:55:31;19.43;;;14.73;;
2748;SDS011;1382;52.142;11.618;2023-04-10T10:58:01;19.93;;;16.10;;
2748;SDS011;1382;52.142;11.618;2023-04-10T11:03:35;19.70;;;17.57;;
2748;SDS011;1382;52.142;11.618;2023-04-10T11:06:03;22.03;;;18.93;;
2748;SDS011;1382;52.142;11.618;2023-04-10T11:08:34;21.67;;;16.70;;
2748;SDS011;1382;52.142;11.618;2023-04-10T11:11:05;17.80;;;15.17;;
2748;SDS011;1382;52.142;11.618;2023-04-10T11:13:34;15.30;;;13.60;;
2748;SDS011;1382;52.142;11.618;2023-04-10T11:16:03;18.87;;;15.40;;
2748;SDS011;1382;52.142;11.618;2023-04-10T11:21:59;25.13;;;16.20;;
2748;SDS011;1382;52.142;11.618;2023-04-10T11:30:33;17.07;;;15.37;;
2748;SDS011;1382;52.142;11.618;2023-04-10T11:33:01;17.10;;;15.23;;
2748;SDS011;1382;52.142;11.618;2023-04-10T11:35:29;17.50;;;14.60;;
2748;SDS011;1382;52.142;11.618;2023-04-10T11:38:10;20.53;;;15.30;;
2748;SDS011;1382;52.142;11.618;2023-04-10T11:40:54;18.50;;;14.37;;
2748;SDS011;1382;52.142;11.618;2023-04-10T11:43:21;15.57;;;13.90;;
2748;SDS011;1382;52.142;11.618;2023-04-10T11:45:49;14.63;;;12.57;;
2748;SDS011;1382;52.142;11.618;2023-04-10T11:48:24;16.30;;;13.67;;
2748;SDS011;1382;52.142;11.618;2023-04-10T11:50:50;17.73;;;15.03;;
2748;SDS011;1382;52.142;11.618;2023-04-10T11:53:17;20.03;;;15.60;;
2748;SDS011;1382;52.142;11.618;2023-04-10T11:55:44;18.40;;;15.07;;
2748;SDS011;1382;52.142;11.618;2023-04-10T11:58:21;17.80;;;13.30;;
2748;SDS011;1382;52.142;11.618;2023-04-10T12:00:56;17.23;;;12.93;;
2748;SDS011;1382;52.142;11.618;2023-04-10T12:03:33;17.23;;;14.37;;
2748;SDS011;1382;52.142;11.618;2023-04-10T12:06:01;16.10;;;13.47;;
2748;SDS011;1382;52.142;11.618;2023-04-10T12:08:29;14.60;;;11.40;;
2748;SDS011;1382;52.142;11.618;2023-04-10T12:10:57;18.00;;;14.63;;
2748;SDS011;1382;52.142;11.618;2023-04-10T12:13:24;15.77;;;13.83;;
2748;SDS011;1382;52.142;11.618;2023-04-10T12:15:51;15.77;;;12.80;;
2748;SDS011;1382;52.142;11.618;2023-04-10T12:18:19;19.60;;;13.80;;
2748;SDS011;1382;52.142;11.618;2023-04-10T12:20:47;15.53;;;12.90;;
2748;SDS011;1382;52.142;11.618;2023-04-10T12:23:14;15.40;;;12.57;;
2748;SDS011;1382;52.142;11.618;2023-04-10T12:25:41;14.20;;;11.60;;
2748;SDS011;1382;52.142;11.618;2023-04-10T12:28:14;13.70;;;11.40;;
2748;SDS011;1382;52.142;11.618;2023-04-10T12:30:45;13.23;;;11.30;;
2748;SDS011;1382;52.142;11.618;2023-04-10T12:33:12;14.00;;;12.50;;
2748;SDS011;1382;52.142;11.618;2023-04-10T12:35:40;12.63;;;9.00;;
2748;SDS011;1382;52.142;11.618;2023-04-10T12:38:07;13.40;;;11.73;;
2748;SDS011;1382;52.142;11.618;2023-04-10T12:40:34;11.87;;;9.30;;
2748;SDS011;1382;52.142;11.618;2023-04-10T12:43:00;7.73;;;6.93;;
2748;SDS011;1382;52.142;11.618;2023-04-10T12:45:40;12.33;;;9.73;;
2748;SDS011;1382;52.142;11.618;2023-04-10T12:48:07;13.73;;;10.53;;
2748;SDS011;1382;52.142;11.618;2023-04-10T12:50:34;15.30;;;9.57;;
2748;SDS011;1382;52.142;11.618;2023-04-10T12:53:12;12.03;;;9.73;;
2748;SDS011;1382;52.142;11.618;2023-04-10T12:55:40;9.23;;;8.27;;
2748;SDS011;1382;52.142;11.618;2023-04-10T12:58:16;10.87;;;9.77;;
2748;SDS011;1382;52.142;11.618;2023-04-10T13:00:44;10.23;;;9.17;;
2748;SDS011;1382;52.142;11.618;2023-04-10T13:03:11;13.17;;;10.10;;
2748;SDS011;1382;52.142;11.618;2023-04-10T13:05:38;10.90;;;9.80;;
2748;SDS011;1382;52.142;11.618;2023-04-10T13:08:06;10.03;;;8.87;;
2748;SDS011;1382;52.142;11.618;2023-04-10T13:10:32;10.77;;;9.63;;
2748;SDS011;1382;52.142;11.618;2023-04-10T13:12:59;11.20;;;8.30;;
2748;SDS011;1382;52.142;11.618;2023-04-10T13:15:26;7.60;;;6.67;;
2748;SDS011;1382;52.142;11.618;2023-04-10T13:17:52;11.87;;;10.60;;
2748;SDS011;1382;52.142;11.618;2023-04-10T13:20:19;14.30;;;9.70;;
2748;SDS011;1382;52.142;11.618;2023-04-10T13:22:47;12.33;;;9.50;;
2748;SDS011;1382;52.142;11.618;2023-04-10T13:25:15;10.47;;;8.73;;
2748;SDS011;1382;52.142;11.618;2023-04-10T13:27:42;13.40;;;10.80;;
2748;SDS011;1382;52.142;11.618;2023-04-10T13:30:09;11.03;;;9.90;;
2748;SDS011;1382;52.142;11.618;2023-04-10T13:32:35;10.93;;;8.77;;
2748;SDS011;1382;52.142;11.618;2023-04-10T13:35:02;11.37;;;8.93;;
2748;SDS011;1382;52.142;11.618;2023-04-10T13:37:29;13.00;;;9.97;;
2748;SDS011;1382;52.142;11.618;2023-04-10T13:39:56;8.93;;;7.07;;
2748;SDS011;1382;52.142;11.618;2023-04-10T13:42:24;12.30;;;10.53;;
2748;SDS011;1382;52.142;11.618;2023-04-10T13:44:51;11.57;;;10.30;;
2748;SDS011;1382;52.142;11.618;2023-04-10T13:47:17;12.50;;;9.87;;
2748;SDS011;1382;52.142;11.618;2023-04-10T13:49:44;11.77;;;9.20;;
2748;SDS011;1382;52.142;11.618;2023-04-10T13:52:11;11.27;;;9.67;;
2748;SDS011;1382;52.142;11.618;2023-04-10T13:54:37;10.90;;;8.80;;
2748;SDS011;1382;52.142;11.618;2023-04-10T13:57:04;11.60;;;8.67;;
2748;SDS011;1382;52.142;11.618;2023-04-10T13:59:32;13.27;;;9.97;;
2748;SDS011;1382;52.142;11.618;2023-04-10T14:01:59;11.03;;;9.23;;
2748;SDS011;1382;52.142;11.618;2023-04-10T14:04:26;11.17;;;10.07;;
2748;SDS011;1382;52.142;11.618;2023-04-10T14:06:52;10.50;;;9.40;;
2748;SDS011;1382;52.142;11.618;2023-04-10T14:09:19;10.77;;;8.67;;
2748;SDS011;1382;52.142;11.618;2023-04-10T14:11:46;13.30;;;9.77;;
2748;SDS011;1382;52.142;11.618;2023-04-10T14:14:12;11.73;;;8.93;;
2748;SDS011;1382;52.142;11.618;2023-04-10T14:16:40;9.90;;;7.80;;
2748;SDS011;1382;52.142;11.618;2023-04-10T14:19:07;10.07;;;9.07;;
2748;SDS011;1382;52.142;11.618;2023-04-10T14:21:34;11.17;;;8.13;;
2748;SDS011;1382;52.142;11.618;2023-04-10T14:24:01;11.23;;;8.00;;
2748;SDS011;1382;52.142;11.618;2023-04-10T14:26:27;14.37;;;10.30;;
2748;SDS011;1382;52.142;11.618;2023-04-10T14:28:55;12.50;;;10.40;;
2748;SDS011;1382;52.142;11.618;2023-04-10T14:31:22;10.87;;;8.60;;
2748;SDS011;1382;52.142;11.618;2023-04-10T14:33:50;9.47;;;8.27;;
2748;SDS011;1382;52.142;11.618;2023-04-10T14:36:17;10.50;;;9.23;;
2748;SDS011;1382;52.142;11.618;2023-04-10T14:38:44;10.77;;;9.03;;
2748;SDS011;1382;52.142;11.618;2023-04-10T14:41:11;11.50;;;8.30;;
2748;SDS011;1382;52.142;11.618;2023-04-10T14:43:37;9.90;;;8.90;;
2748;SDS011;1382;52.142;11.618;2023-04-10T14:46:04;9.03;;;8.20;;
2748;SDS011;1382;52.142;11.618;2023-04-10T14:48:31;10.87;;;8.87;;
2748;SDS011;1382;52.142;11.618;2023-04-10T14:51:00;9.27;;;8.27;;
2748;SDS011;1382;52.142;11.618;2023-04-10T14:53:27;11.43;;;8.83;;
2748;SDS011;1382;52.142;11.618;2023-04-10T14:55:53;11.47;;;8.30;;
2748;SDS011;1382;52.142;11.618;2023-04-10T14:58:20;8.97;;;8.07;;